sensor_id;sensor_type;location;lat;lon;timestamp;P1;durP1;ratioP1;P2;durP2;ratioP2
75787;SDS011;64406;50.024;14.492;2023-05-20T00:02:04;23.83;;;14.88;;
75787;SDS011;64406;50.024;14.492;2023-05-20T00:04:30;27.83;;;16.52;;
75787;SDS011;64406;50.024;14.492;2023-05-20T00:06:55;30.35;;;16.85;;
75787;SDS011;64406;50.024;14.492;2023-05-20T00:09:21;25.25;;;15.25;;
75787;SDS011;64406;50.024;14.492;2023-05-20T00:11:46;26.75;;;15.57;;
75787;SDS011;64406;50.024;14.492;2023-05-20T00:14:12;26.02;;;15.75;;
75787;SDS011;64406;50.024;14.492;2023-05-20T00:16:38;27.30;;;16.20;;
75787;SDS011;64406;50.024;14.492;2023-05-20T00:19:04;31.42;;;16.33;;
75787;SDS011;64406;50.024;14.492;2023-05-20T00:21:29;28.35;;;15.70;;
75787;SDS011;64406;50.024;14.492;2023-05-20T00:23:55;30.20;;;16.55;;
75787;SDS011;64406;50.024;14.492;2023-05-20T00:26:21;27.42;;;16.83;;
75787;SDS011;64406;50.024;14.492;2023-05-20T00:28:47;29.60;;;16.50;;
75787;SDS011;64406;50.024;14.492;2023-05-20T00:31:12;30.65;;;16.58;;
75787;SDS011;64406;50.024;14.492;2023-05-20T00:33:38;29.73;;;16.48;;
75787;SDS011;64406;50.024;14.492;2023-05-20T00:36:03;29.65;;;16.33;;
75787;SDS011;64406;50.024;14.492;2023-05-20T00:38:30;29.60;;;16.35;;
75787;SDS011;64406;50.024;14.492;2023-05-20T00:40:55;28.27;;;15.25;;
75787;SDS011;64406;50.024;14.492;2023-05-20T00:43:21;28.88;;;16.83;;
75787;SDS011;64406;50.024;14.492;2023-05-20T00:45:49;28.50;;;17.13;;
75787;SDS011;64406;50.024;14.492;2023-05-20T00:48:17;27.42;;;15.07;;
75787;SDS011;64406;50.024;14.492;2023-05-20T00:50:42;30.65;;;15.73;;
75787;SDS011;64406;50.024;14.492;2023-05-20T00:53:08;26.33;;;15.65;;
75787;SDS011;64406;50.024;14.492;2023-05-20T00:55:34;27.20;;;14.75;;
75787;SDS011;64406;50.024;14.492;2023-05-20T00:58:00;26.05;;;14.88;;
75787;SDS011;64406;50.024;14.492;2023-05-20T01:00:26;29.42;;;15.90;;
75787;SDS011;64406;50.024;14.492;2023-05-20T01:02:52;28.00;;;14.77;;
75787;SDS011;64406;50.024;14.492;2023-05-20T01:05:19;29.17;;;16.48;;
75787;SDS011;64406;50.024;14.492;2023-05-20T01:07:45;31.40;;;15.73;;
75787;SDS011;64406;50.024;14.492;2023-05-20T01:10:11;33.50;;;17.88;;
75787;SDS011;64406;50.024;14.492;2023-05-20T01:12:43;31.30;;;15.63;;
75787;SDS011;64406;50.024;14.492;2023-05-20T01:15:18;30.67;;;15.77;;
75787;SDS011;64406;50.024;14.492;2023-05-20T01:17:49;27.52;;;15.43;;
75787;SDS011;64406;50.024;14.492;2023-05-20T01:20:16;31.88;;;16.15;;
75787;SDS011;64406;50.024;14.492;2023-05-20T01:22:46;28.20;;;15.63;;
75787;SDS011;64406;50.024;14.492;2023-05-20T01:25:13;27.90;;;14.75;;
75787;SDS011;64406;50.024;14.492;2023-05-20T01:27:39;27.75;;;14.73;;
75787;SDS011;64406;50.024;14.492;2023-05-20T01:30:04;25.73;;;15.52;;
75787;SDS011;64406;50.024;14.492;2023-05-20T01:32:32;25.55;;;15.10;;
75787;SDS011;64406;50.024;14.492;2023-05-20T01:35:01;26.80;;;14.90;;
75787;SDS011;64406;50.024;14.492;2023-05-20T01:37:28;29.08;;;16.20;;
75787;SDS011;64406;50.024;14.492;2023-05-20T01:39:55;30.90;;;17.17;;
75787;SDS011;64406;50.024;14.492;2023-05-20T01:42:22;27.67;;;15.93;;
75787;SDS011;64406;50.024;14.492;2023-05-20T01:44:50;31.17;;;16.13;;
75787;SDS011;64406;50.024;14.492;2023-05-20T01:47:16;31.40;;;15.93;;
75787;SDS011;64406;50.024;14.492;2023-05-20T01:49:42;27.05;;;15.50;;
75787;SDS011;64406;50.024;14.492;2023-05-20T01:52:10;29.30;;;16.17;;
75787;SDS011;64406;50.024;14.492;2023-05-20T01:54:36;29.73;;;16.25;;
75787;SDS011;64406;50.024;14.492;2023-05-20T01:57:02;28.83;;;17.13;;
75787;SDS011;64406;50.024;14.492;2023-05-20T01:59:27;31.00;;;17.05;;
75787;SDS011;64406;50.024;14.492;2023-05-20T02:01:53;28.98;;;16.02;;
75787;SDS011;64406;50.024;14.492;2023-05-20T02:04:19;28.00;;;15.82;;
75787;SDS011;64406;50.024;14.492;2023-05-20T02:06:46;27.80;;;15.90;;
75787;SDS011;64406;50.024;14.492;2023-05-20T02:09:12;30.38;;;16.75;;
75787;SDS011;64406;50.024;14.492;2023-05-20T02:11:38;27.75;;;14.63;;
75787;SDS011;64406;50.024;14.492;2023-05-20T02:14:04;31.90;;;16.67;;
75787;SDS011;64406;50.024;14.492;2023-05-20T02:16:30;30.55;;;16.73;;
75787;SDS011;64406;50.024;14.492;2023-05-20T02:18:56;32.80;;;16.80;;
75787;SDS011;64406;50.024;14.492;2023-05-20T02:21:23;30.50;;;17.52;;
75787;SDS011;64406;50.024;14.492;2023-05-20T02:23:50;35.35;;;17.50;;
75787;SDS011;64406;50.024;14.492;2023-05-20T02:26:16;32.30;;;16.73;;
75787;SDS011;64406;50.024;14.492;2023-05-20T02:28:41;33.22;;;16.27;;
75787;SDS011;64406;50.024;14.492;2023-05-20T02:31:11;30.15;;;16.67;;
75787;SDS011;64406;50.024;14.492;2023-05-20T02:33:37;32.40;;;16.40;;
75787;SDS011;64406;50.024;14.492;2023-05-20T02:36:03;35.45;;;18.65;;
75787;SDS011;64406;50.024;14.492;2023-05-20T02:38:29;30.70;;;15.93;;
75787;SDS011;64406;50.024;14.492;2023-05-20T02:40:56;31.67;;;17.20;;
75787;SDS011;64406;50.024;14.492;2023-05-20T02:43:23;32.88;;;17.10;;
75787;SDS011;64406;50.024;14.492;2023-05-20T02:45:49;34.05;;;17.52;;
75787;SDS011;64406;50.024;14.492;2023-05-20T02:48:15;32.28;;;16.95;;
75787;SDS011;64406;50.024;14.492;2023-05-20T02:50:41;32.97;;;17.23;;
75787;SDS011;64406;50.024;14.492;2023-05-20T02:53:06;31.23;;;17.67;;
75787;SDS011;64406;50.024;14.492;2023-05-20T02:55:35;29.58;;;17.02;;
75787;SDS011;64406;50.024;14.492;2023-05-20T02:58:01;32.08;;;17.08;;
75787;SDS011;64406;50.024;14.492;2023-05-20T03:00:27;35.45;;;16.40;;
75787;SDS011;64406;50.024;14.492;2023-05-20T03:02:56;32.35;;;16.95;;
75787;SDS011;64406;50.024;14.492;2023-05-20T03:05:23;30.50;;;16.63;;
75787;SDS011;64406;50.024;14.492;2023-05-20T03:07:48;35.38;;;18.50;;
75787;SDS011;64406;50.024;14.492;2023-05-20T03:10:14;35.03;;;19.10;;
75787;SDS011;64406;50.024;14.492;2023-05-20T03:12:40;38.60;;;18.23;;
75787;SDS011;64406;50.024;14.492;2023-05-20T03:15:06;33.38;;;19.08;;
75787;SDS011;64406;50.024;14.492;2023-05-20T03:17:32;35.88;;;18.52;;
75787;SDS011;64406;50.024;14.492;2023-05-20T03:19:57;35.90;;;19.60;;
75787;SDS011;64406;50.024;14.492;2023-05-20T03:22:23;36.10;;;19.20;;
75787;SDS011;64406;50.024;14.492;2023-05-20T03:24:49;39.38;;;18.40;;
75787;SDS011;64406;50.024;14.492;2023-05-20T03:27:16;33.83;;;18.15;;
75787;SDS011;64406;50.024;14.492;2023-05-20T03:29:42;36.45;;;17.83;;
75787;SDS011;64406;50.024;14.492;2023-05-20T03:32:08;41.10;;;20.30;;
75787;SDS011;64406;50.024;14.492;2023-05-20T03:34:34;39.60;;;20.00;;
75787;SDS011;64406;50.024;14.492;2023-05-20T03:36:59;34.15;;;18.40;;
75787;SDS011;64406;50.024;14.492;2023-05-20T03:39:25;35.90;;;19.38;;
75787;SDS011;64406;50.024;14.492;2023-05-20T03:41:51;36.60;;;18.42;;
75787;SDS011;64406;50.024;14.492;2023-05-20T03:44:16;33.55;;;18.85;;
75787;SDS011;64406;50.024;14.492;2023-05-20T03:46:43;34.92;;;18.10;;
75787;SDS011;64406;50.024;14.492;2023-05-20T03:49:09;36.83;;;17.77;;
75787;SDS011;64406;50.024;14.492;2023-05-20T03:51:34;39.45;;;19.95;;
75787;SDS011;64406;50.024;14.492;2023-05-20T03:54:00;34.17;;;18.77;;
75787;SDS011;64406;50.024;14.492;2023-05-20T03:56:26;39.28;;;20.98;;
75787;SDS011;64406;50.024;14.492;2023-05-20T03:58:51;36.95;;;18.92;;
75787;SDS011;64406;50.024;14.492;2023-05-20T04:01:17;37.25;;;19.17;;
75787;SDS011;64406;50.024;14.492;2023-05-20T04:03:43;40.15;;;19.75;;
75787;SDS011;64406;50.024;14.492;2023-05-20T04:06:09;37.28;;;18.25;;
75787;SDS011;64406;50.024;14.492;2023-05-20T04:08:35;35.55;;;19.45;;
75787;SDS011;64406;50.024;14.492;2023-05-20T04:11:01;36.33;;;19.77;;
75787;SDS011;64406;50.024;14.492;2023-05-20T04:13:29;36.08;;;18.90;;
75787;SDS011;64406;50.024;14.492;2023-05-20T04:15:55;36.33;;;19.17;;
75787;SDS011;64406;50.024;14.492;2023-05-20T04:18:20;39.45;;;19.17;;
75787;SDS011;64406;50.024;14.492;2023-05-20T04:20:46;36.55;;;17.90;;
75787;SDS011;64406;50.024;14.492;2023-05-20T04:23:11;39.45;;;18.85;;
75787;SDS011;64406;50.024;14.492;2023-05-20T04:25:37;36.97;;;19.63;;
75787;SDS011;64406;50.024;14.492;2023-05-20T04:28:03;34.97;;;18.80;;
75787;SDS011;64406;50.024;14.492;2023-05-20T04:30:29;33.88;;;17.15;;
75787;SDS011;64406;50.024;14.492;2023-05-20T04:32:57;36.30;;;18.95;;
75787;SDS011;64406;50.024;14.492;2023-05-20T04:35:23;33.35;;;19.45;;
75787;SDS011;64406;50.024;14.492;2023-05-20T04:37:50;32.85;;;18.52;;
75787;SDS011;64406;50.024;14.492;2023-05-20T04:40:18;36.00;;;17.95;;
75787;SDS011;64406;50.024;14.492;2023-05-20T04:42:45;32.50;;;17.98;;
75787;SDS011;64406;50.024;14.492;2023-05-20T04:45:10;30.60;;;17.08;;
75787;SDS011;64406;50.024;14.492;2023-05-20T04:47:38;31.70;;;18.75;;
75787;SDS011;64406;50.024;14.492;2023-05-20T04:50:07;30.33;;;17.27;;
75787;SDS011;64406;50.024;14.492;2023-05-20T04:55:06;29.02;;;15.93;;
75787;SDS011;64406;50.024;14.492;2023-05-20T04:57:39;33.20;;;17.52;;
75787;SDS011;64406;50.024;14.492;2023-05-20T05:00:06;28.63;;;16.10;;
75787;SDS011;64406;50.024;14.492;2023-05-20T05:02:34;30.20;;;16.52;;
75787;SDS011;64406;50.024;14.492;2023-05-20T05:05:00;26.63;;;15.75;;
75787;SDS011;64406;50.024;14.492;2023-05-20T05:07:26;26.17;;;15.23;;
75787;SDS011;64406;50.024;14.492;2023-05-20T05:09:51;27.98;;;16.15;;
75787;SDS011;64406;50.024;14.492;2023-05-20T05:12:17;26.10;;;15.65;;
75787;SDS011;64406;50.024;14.492;2023-05-20T05:14:43;25.77;;;14.82;;
75787;SDS011;64406;50.024;14.492;2023-05-20T05:17:08;26.05;;;14.98;;
75787;SDS011;64406;50.024;14.492;2023-05-20T05:19:34;25.65;;;14.65;;
75787;SDS011;64406;50.024;14.492;2023-05-20T05:22:00;27.48;;;15.23;;
75787;SDS011;64406;50.024;14.492;2023-05-20T05:24:25;27.98;;;15.23;;
75787;SDS011;64406;50.024;14.492;2023-05-20T05:26:52;24.90;;;14.73;;
75787;SDS011;64406;50.024;14.492;2023-05-20T05:29:18;24.85;;;14.25;;
75787;SDS011;64406;50.024;14.492;2023-05-20T05:31:44;25.83;;;14.57;;
75787;SDS011;64406;50.024;14.492;2023-05-20T05:34:10;24.38;;;14.32;;
75787;SDS011;64406;50.024;14.492;2023-05-20T05:36:38;27.40;;;15.30;;
75787;SDS011;64406;50.024;14.492;2023-05-20T05:39:04;25.48;;;15.07;;
75787;SDS011;64406;50.024;14.492;2023-05-20T05:41:30;25.33;;;14.98;;
75787;SDS011;64406;50.024;14.492;2023-05-20T05:43:56;24.63;;;13.65;;
75787;SDS011;64406;50.024;14.492;2023-05-20T05:46:23;26.52;;;14.52;;
75787;SDS011;64406;50.024;14.492;2023-05-20T05:48:49;22.17;;;13.07;;
75787;SDS011;64406;50.024;14.492;2023-05-20T05:51:15;22.58;;;14.27;;
75787;SDS011;64406;50.024;14.492;2023-05-20T05:53:41;21.55;;;13.50;;
75787;SDS011;64406;50.024;14.492;2023-05-20T05:56:06;26.75;;;15.00;;
75787;SDS011;64406;50.024;14.492;2023-05-20T05:58:32;25.85;;;15.65;;
75787;SDS011;64406;50.024;14.492;2023-05-20T06:00:58;24.52;;;13.98;;
75787;SDS011;64406;50.024;14.492;2023-05-20T06:03:23;27.17;;;14.43;;
75787;SDS011;64406;50.024;14.492;2023-05-20T06:05:49;24.85;;;13.40;;
75787;SDS011;64406;50.024;14.492;2023-05-20T06:08:15;23.45;;;14.00;;
75787;SDS011;64406;50.024;14.492;2023-05-20T06:10:40;22.92;;;13.48;;
75787;SDS011;64406;50.024;14.492;2023-05-20T06:13:06;23.73;;;13.88;;
75787;SDS011;64406;50.024;14.492;2023-05-20T06:15:32;24.02;;;13.10;;
75787;SDS011;64406;50.024;14.492;2023-05-20T06:17:57;28.10;;;14.98;;
75787;SDS011;64406;50.024;14.492;2023-05-20T06:20:23;22.10;;;13.80;;
75787;SDS011;64406;50.024;14.492;2023-05-20T06:22:49;28.48;;;14.45;;
75787;SDS011;64406;50.024;14.492;2023-05-20T06:25:14;26.48;;;13.32;;
75787;SDS011;64406;50.024;14.492;2023-05-20T06:27:40;24.48;;;13.70;;
75787;SDS011;64406;50.024;14.492;2023-05-20T06:30:06;24.27;;;13.60;;
75787;SDS011;64406;50.024;14.492;2023-05-20T06:32:32;25.48;;;14.35;;
75787;SDS011;64406;50.024;14.492;2023-05-20T06:34:57;23.58;;;14.90;;
75787;SDS011;64406;50.024;14.492;2023-05-20T06:37:23;22.73;;;14.10;;
75787;SDS011;64406;50.024;14.492;2023-05-20T06:39:49;22.90;;;13.98;;
75787;SDS011;64406;50.024;14.492;2023-05-20T06:42:18;23.88;;;13.35;;
75787;SDS011;64406;50.024;14.492;2023-05-20T06:44:45;26.02;;;14.55;;
75787;SDS011;64406;50.024;14.492;2023-05-20T06:47:12;25.40;;;14.10;;
75787;SDS011;64406;50.024;14.492;2023-05-20T06:49:40;23.95;;;14.20;;
75787;SDS011;64406;50.024;14.492;2023-05-20T06:52:06;23.27;;;13.95;;
75787;SDS011;64406;50.024;14.492;2023-05-20T06:54:32;24.10;;;13.82;;
75787;SDS011;64406;50.024;14.492;2023-05-20T06:57:01;22.63;;;14.88;;
75787;SDS011;64406;50.024;14.492;2023-05-20T06:59:26;22.88;;;13.77;;
75787;SDS011;64406;50.024;14.492;2023-05-20T07:01:52;24.30;;;14.20;;
75787;SDS011;64406;50.024;14.492;2023-05-20T07:04:18;24.70;;;14.43;;
75787;SDS011;64406;50.024;14.492;2023-05-20T07:06:43;24.38;;;13.88;;
75787;SDS011;64406;50.024;14.492;2023-05-20T07:09:09;24.23;;;12.73;;
75787;SDS011;64406;50.024;14.492;2023-05-20T07:11:35;24.58;;;13.73;;
75787;SDS011;64406;50.024;14.492;2023-05-20T07:14:00;23.38;;;13.82;;
75787;SDS011;64406;50.024;14.492;2023-05-20T07:16:26;22.95;;;13.80;;
75787;SDS011;64406;50.024;14.492;2023-05-20T07:18:51;23.75;;;13.27;;
75787;SDS011;64406;50.024;14.492;2023-05-20T07:21:17;20.02;;;13.55;;
75787;SDS011;64406;50.024;14.492;2023-05-20T07:23:43;24.90;;;14.18;;
75787;SDS011;64406;50.024;14.492;2023-05-20T07:26:09;26.00;;;14.77;;
75787;SDS011;64406;50.024;14.492;2023-05-20T07:28:36;22.80;;;13.18;;
75787;SDS011;64406;50.024;14.492;2023-05-20T07:31:02;22.60;;;13.98;;
75787;SDS011;64406;50.024;14.492;2023-05-20T07:33:28;23.15;;;13.65;;
75787;SDS011;64406;50.024;14.492;2023-05-20T07:35:54;21.58;;;12.52;;
75787;SDS011;64406;50.024;14.492;2023-05-20T07:38:20;21.05;;;13.88;;
75787;SDS011;64406;50.024;14.492;2023-05-20T07:40:45;25.38;;;13.40;;
75787;SDS011;64406;50.024;14.492;2023-05-20T07:43:11;21.90;;;14.00;;
75787;SDS011;64406;50.024;14.492;2023-05-20T07:45:37;20.80;;;13.88;;
75787;SDS011;64406;50.024;14.492;2023-05-20T07:48:03;23.13;;;14.75;;
75787;SDS011;64406;50.024;14.492;2023-05-20T07:50:29;22.45;;;14.40;;
75787;SDS011;64406;50.024;14.492;2023-05-20T07:52:55;23.25;;;13.40;;
75787;SDS011;64406;50.024;14.492;2023-05-20T07:55:21;23.23;;;14.85;;
75787;SDS011;64406;50.024;14.492;2023-05-20T07:57:47;22.25;;;14.10;;
75787;SDS011;64406;50.024;14.492;2023-05-20T08:00:12;20.10;;;13.27;;
75787;SDS011;64406;50.024;14.492;2023-05-20T08:02:38;25.05;;;14.88;;
75787;SDS011;64406;50.024;14.492;2023-05-20T08:05:04;25.52;;;14.35;;
75787;SDS011;64406;50.024;14.492;2023-05-20T08:07:30;19.65;;;13.77;;
75787;SDS011;64406;50.024;14.492;2023-05-20T08:09:56;22.00;;;13.63;;
75787;SDS011;64406;50.024;14.492;2023-05-20T08:12:22;22.60;;;14.15;;
75787;SDS011;64406;50.024;14.492;2023-05-20T08:14:47;23.77;;;14.45;;
75787;SDS011;64406;50.024;14.492;2023-05-20T08:17:13;24.42;;;14.35;;
75787;SDS011;64406;50.024;14.492;2023-05-20T08:19:39;21.58;;;13.90;;
75787;SDS011;64406;50.024;14.492;2023-05-20T08:22:05;21.40;;;13.32;;
75787;SDS011;64406;50.024;14.492;2023-05-20T08:24:31;18.67;;;12.82;;
75787;SDS011;64406;50.024;14.492;2023-05-20T08:26:57;19.00;;;13.52;;
75787;SDS011;64406;50.024;14.492;2023-05-20T08:29:22;20.98;;;13.18;;
75787;SDS011;64406;50.024;14.492;2023-05-20T08:31:48;20.63;;;13.40;;
75787;SDS011;64406;50.024;14.492;2023-05-20T08:34:13;17.33;;;12.18;;
75787;SDS011;64406;50.024;14.492;2023-05-20T08:36:39;22.25;;;13.85;;
75787;SDS011;64406;50.024;14.492;2023-05-20T08:39:05;23.85;;;13.60;;
75787;SDS011;64406;50.024;14.492;2023-05-20T08:41:30;20.85;;;13.68;;
75787;SDS011;64406;50.024;14.492;2023-05-20T08:43:56;17.70;;;12.45;;
75787;SDS011;64406;50.024;14.492;2023-05-20T08:46:25;18.77;;;13.05;;
75787;SDS011;64406;50.024;14.492;2023-05-20T08:48:50;20.02;;;14.27;;
75787;SDS011;64406;50.024;14.492;2023-05-20T08:51:18;19.05;;;13.00;;
75787;SDS011;64406;50.024;14.492;2023-05-20T08:53:45;19.67;;;12.68;;
75787;SDS011;64406;50.024;14.492;2023-05-20T08:56:11;19.90;;;12.75;;
75787;SDS011;64406;50.024;14.492;2023-05-20T08:58:37;19.58;;;12.73;;
75787;SDS011;64406;50.024;14.492;2023-05-20T09:01:03;20.17;;;14.07;;
75787;SDS011;64406;50.024;14.492;2023-05-20T09:03:30;19.70;;;13.48;;
75787;SDS011;64406;50.024;14.492;2023-05-20T09:06:04;20.02;;;13.15;;
75787;SDS011;64406;50.024;14.492;2023-05-20T09:08:31;19.40;;;12.50;;
75787;SDS011;64406;50.024;14.492;2023-05-20T09:10:57;21.77;;;13.15;;
75787;SDS011;64406;50.024;14.492;2023-05-20T09:13:23;16.67;;;12.23;;
75787;SDS011;64406;50.024;14.492;2023-05-20T09:15:49;17.80;;;11.90;;
75787;SDS011;64406;50.024;14.492;2023-05-20T09:18:14;18.23;;;11.68;;
75787;SDS011;64406;50.024;14.492;2023-05-20T09:20:40;21.40;;;12.27;;
75787;SDS011;64406;50.024;14.492;2023-05-20T09:23:06;16.52;;;12.55;;
75787;SDS011;64406;50.024;14.492;2023-05-20T09:25:33;16.73;;;12.40;;
75787;SDS011;64406;50.024;14.492;2023-05-20T09:27:59;19.15;;;12.30;;
75787;SDS011;64406;50.024;14.492;2023-05-20T09:30:25;19.58;;;12.30;;
75787;SDS011;64406;50.024;14.492;2023-05-20T09:32:51;18.42;;;13.30;;
75787;SDS011;64406;50.024;14.492;2023-05-20T09:35:21;16.63;;;12.10;;
75787;SDS011;64406;50.024;14.492;2023-05-20T09:37:49;18.15;;;11.15;;
75787;SDS011;64406;50.024;14.492;2023-05-20T09:40:18;19.38;;;12.20;;
75787;SDS011;64406;50.024;14.492;2023-05-20T09:42:55;17.20;;;11.55;;
75787;SDS011;64406;50.024;14.492;2023-05-20T09:45:24;17.40;;;12.38;;
75787;SDS011;64406;50.024;14.492;2023-05-20T09:47:50;15.52;;;10.73;;
75787;SDS011;64406;50.024;14.492;2023-05-20T09:50:20;15.30;;;11.95;;
75787;SDS011;64406;50.024;14.492;2023-05-20T09:52:47;15.68;;;10.23;;
75787;SDS011;64406;50.024;14.492;2023-05-20T09:55:14;15.35;;;10.40;;
75787;SDS011;64406;50.024;14.492;2023-05-20T09:57:42;15.20;;;9.88;;
75787;SDS011;64406;50.024;14.492;2023-05-20T10:00:08;13.98;;;10.43;;
75787;SDS011;64406;50.024;14.492;2023-05-20T10:02:34;14.30;;;10.93;;
75787;SDS011;64406;50.024;14.492;2023-05-20T10:05:02;15.20;;;11.43;;
75787;SDS011;64406;50.024;14.492;2023-05-20T10:20:45;12.63;;;10.02;;
75787;SDS011;64406;50.024;14.492;2023-05-20T10:23:28;12.85;;;9.15;;
75787;SDS011;64406;50.024;14.492;2023-05-20T10:25:55;10.73;;;8.85;;
75787;SDS011;64406;50.024;14.492;2023-05-20T10:33:21;11.02;;;9.30;;
75787;SDS011;64406;50.024;14.492;2023-05-20T10:35:49;14.02;;;9.77;;
75787;SDS011;64406;50.024;14.492;2023-05-20T10:38:16;13.45;;;8.95;;
75787;SDS011;64406;50.024;14.492;2023-05-20T10:40:42;13.25;;;9.80;;
75787;SDS011;64406;50.024;14.492;2023-05-20T10:43:08;14.20;;;10.90;;
75787;SDS011;64406;50.024;14.492;2023-05-20T10:45:50;14.80;;;10.23;;
75787;SDS011;64406;50.024;14.492;2023-05-20T10:48:32;13.25;;;9.85;;
75787;SDS011;64406;50.024;14.492;2023-05-20T10:50:58;14.60;;;11.07;;
75787;SDS011;64406;50.024;14.492;2023-05-20T10:53:28;13.60;;;10.48;;
75787;SDS011;64406;50.024;14.492;2023-05-20T10:55:55;13.18;;;10.00;;
75787;SDS011;64406;50.024;14.492;2023-05-20T10:58:21;13.98;;;10.32;;
75787;SDS011;64406;50.024;14.492;2023-05-20T11:00:48;12.38;;;10.52;;
75787;SDS011;64406;50.024;14.492;2023-05-20T11:03:15;16.20;;;11.43;;
75787;SDS011;64406;50.024;14.492;2023-05-20T11:05:43;15.52;;;10.23;;
75787;SDS011;64406;50.024;14.492;2023-05-20T11:08:11;14.55;;;10.48;;
75787;SDS011;64406;50.024;14.492;2023-05-20T11:10:36;15.32;;;10.73;;
75787;SDS011;64406;50.024;14.492;2023-05-20T11:13:02;18.10;;;9.93;;
75787;SDS011;64406;50.024;14.492;2023-05-20T11:15:30;13.13;;;10.30;;
75787;SDS011;64406;50.024;14.492;2023-05-20T11:17:59;11.35;;;10.10;;
75787;SDS011;64406;50.024;14.492;2023-05-20T11:20:26;12.48;;;9.23;;
75787;SDS011;64406;50.024;14.492;2023-05-20T11:22:52;12.70;;;9.95;;
75787;SDS011;64406;50.024;14.492;2023-05-20T11:25:19;17.30;;;10.32;;
75787;SDS011;64406;50.024;14.492;2023-05-20T11:27:45;14.00;;;10.32;;
75787;SDS011;64406;50.024;14.492;2023-05-20T11:30:12;12.07;;;9.38;;
75787;SDS011;64406;50.024;14.492;2023-05-20T11:32:44;12.85;;;9.55;;
75787;SDS011;64406;50.024;14.492;2023-05-20T11:35:21;12.68;;;10.02;;
75787;SDS011;64406;50.024;14.492;2023-05-20T11:38:01;13.30;;;9.20;;
75787;SDS011;64406;50.024;14.492;2023-05-20T11:40:32;11.57;;;9.70;;
75787;SDS011;64406;50.024;14.492;2023-05-20T11:42:59;11.68;;;9.48;;
75787;SDS011;64406;50.024;14.492;2023-05-20T11:45:26;12.02;;;9.32;;
75787;SDS011;64406;50.024;14.492;2023-05-20T11:48:01;12.25;;;8.73;;
75787;SDS011;64406;50.024;14.492;2023-05-20T11:50:28;11.00;;;8.77;;
75787;SDS011;64406;50.024;14.492;2023-05-20T11:53:00;11.85;;;9.85;;
75787;SDS011;64406;50.024;14.492;2023-05-20T11:55:28;11.02;;;9.32;;
75787;SDS011;64406;50.024;14.492;2023-05-20T11:57:57;11.65;;;9.57;;
75787;SDS011;64406;50.024;14.492;2023-05-20T12:00:22;14.10;;;10.02;;
75787;SDS011;64406;50.024;14.492;2023-05-20T12:02:48;13.40;;;9.60;;
75787;SDS011;64406;50.024;14.492;2023-05-20T12:05:14;10.95;;;9.27;;
75787;SDS011;64406;50.024;14.492;2023-05-20T12:07:40;11.93;;;8.73;;
75787;SDS011;64406;50.024;14.492;2023-05-20T12:10:06;10.07;;;8.85;;
75787;SDS011;64406;50.024;14.492;2023-05-20T12:12:32;12.80;;;9.90;;
75787;SDS011;64406;50.024;14.492;2023-05-20T12:14:58;13.20;;;9.88;;
75787;SDS011;64406;50.024;14.492;2023-05-20T12:17:24;12.55;;;8.90;;
75787;SDS011;64406;50.024;14.492;2023-05-20T12:19:49;11.55;;;8.75;;
75787;SDS011;64406;50.024;14.492;2023-05-20T12:22:15;12.60;;;9.50;;
75787;SDS011;64406;50.024;14.492;2023-05-20T12:24:40;10.13;;;9.02;;
75787;SDS011;64406;50.024;14.492;2023-05-20T12:27:06;10.52;;;9.00;;
75787;SDS011;64406;50.024;14.492;2023-05-20T12:29:32;10.63;;;9.13;;
75787;SDS011;64406;50.024;14.492;2023-05-20T12:31:58;11.52;;;8.57;;
75787;SDS011;64406;50.024;14.492;2023-05-20T12:34:24;10.90;;;8.80;;
75787;SDS011;64406;50.024;14.492;2023-05-20T12:36:49;13.05;;;9.10;;
75787;SDS011;64406;50.024;14.492;2023-05-20T12:39:15;13.02;;;9.52;;
75787;SDS011;64406;50.024;14.492;2023-05-20T12:41:42;10.10;;;8.82;;
75787;SDS011;64406;50.024;14.492;2023-05-20T12:44:09;10.38;;;8.48;;
75787;SDS011;64406;50.024;14.492;2023-05-20T12:46:35;10.45;;;8.90;;
75787;SDS011;64406;50.024;14.492;2023-05-20T12:49:02;9.85;;;7.97;;
75787;SDS011;64406;50.024;14.492;2023-05-20T12:51:28;12.65;;;8.88;;
75787;SDS011;64406;50.024;14.492;2023-05-20T12:53:53;9.02;;;8.05;;
75787;SDS011;64406;50.024;14.492;2023-05-20T12:56:19;9.70;;;8.13;;
75787;SDS011;64406;50.024;14.492;2023-05-20T12:58:46;10.40;;;8.48;;
75787;SDS011;64406;50.024;14.492;2023-05-20T13:01:13;13.52;;;9.02;;
75787;SDS011;64406;50.024;14.492;2023-05-20T13:03:38;12.07;;;8.43;;
75787;SDS011;64406;50.024;14.492;2023-05-20T13:06:04;8.43;;;7.53;;
75787;SDS011;64406;50.024;14.492;2023-05-20T13:08:30;11.13;;;8.70;;
75787;SDS011;64406;50.024;14.492;2023-05-20T13:10:55;11.23;;;8.23;;
75787;SDS011;64406;50.024;14.492;2023-05-20T13:13:21;14.88;;;8.10;;
75787;SDS011;64406;50.024;14.492;2023-05-20T13:15:47;9.15;;;8.23;;
75787;SDS011;64406;50.024;14.492;2023-05-20T13:18:16;8.63;;;7.68;;
75787;SDS011;64406;50.024;14.492;2023-05-20T13:20:42;9.77;;;7.70;;
75787;SDS011;64406;50.024;14.492;2023-05-20T13:23:08;10.30;;;7.45;;
75787;SDS011;64406;50.024;14.492;2023-05-20T13:25:33;10.18;;;7.43;;
75787;SDS011;64406;50.024;14.492;2023-05-20T13:27:59;9.60;;;8.05;;
75787;SDS011;64406;50.024;14.492;2023-05-20T13:30:25;9.10;;;7.25;;
75787;SDS011;64406;50.024;14.492;2023-05-20T13:32:52;13.52;;;7.63;;
75787;SDS011;64406;50.024;14.492;2023-05-20T13:35:18;7.97;;;7.18;;
75787;SDS011;64406;50.024;14.492;2023-05-20T13:37:44;8.00;;;7.03;;
75787;SDS011;64406;50.024;14.492;2023-05-20T13:40:09;9.20;;;7.43;;
75787;SDS011;64406;50.024;14.492;2023-05-20T13:42:36;8.98;;;6.45;;
75787;SDS011;64406;50.024;14.492;2023-05-20T13:45:02;10.68;;;7.50;;
75787;SDS011;64406;50.024;14.492;2023-05-20T13:47:28;8.45;;;6.90;;
75787;SDS011;64406;50.024;14.492;2023-05-20T13:49:54;9.82;;;6.82;;
75787;SDS011;64406;50.024;14.492;2023-05-20T13:52:19;10.13;;;7.50;;
75787;SDS011;64406;50.024;14.492;2023-05-20T13:54:45;9.10;;;7.40;;
75787;SDS011;64406;50.024;14.492;2023-05-20T13:57:12;9.15;;;7.53;;
75787;SDS011;64406;50.024;14.492;2023-05-20T13:59:38;9.75;;;7.75;;
75787;SDS011;64406;50.024;14.492;2023-05-20T14:02:04;9.52;;;7.35;;
75787;SDS011;64406;50.024;14.492;2023-05-20T14:04:30;9.38;;;7.95;;
75787;SDS011;64406;50.024;14.492;2023-05-20T14:06:55;8.82;;;7.53;;
75787;SDS011;64406;50.024;14.492;2023-05-20T14:09:21;8.60;;;6.78;;
75787;SDS011;64406;50.024;14.492;2023-05-20T14:11:47;9.60;;;7.63;;
75787;SDS011;64406;50.024;14.492;2023-05-20T14:14:13;9.15;;;7.45;;
75787;SDS011;64406;50.024;14.492;2023-05-20T14:16:38;8.93;;;6.43;;
75787;SDS011;64406;50.024;14.492;2023-05-20T14:19:04;9.18;;;6.55;;
75787;SDS011;64406;50.024;14.492;2023-05-20T14:21:29;7.72;;;6.28;;
75787;SDS011;64406;50.024;14.492;2023-05-20T14:23:56;10.93;;;7.28;;
75787;SDS011;64406;50.024;14.492;2023-05-20T14:26:22;9.52;;;7.13;;
75787;SDS011;64406;50.024;14.492;2023-05-20T14:28:48;10.70;;;7.13;;
75787;SDS011;64406;50.024;14.492;2023-05-20T14:31:14;7.85;;;6.70;;